Edgemont, Pennsylvania
Current Conditions -  °F | °C
As of 4:54 PM on Thursday 23 Oct 2014 (Local Time) from KPHL Reporting Station
Overcast Overcast  
Wind Chill: 14°   Ceiling: 7000
Heat Index: 14°   Visibility: 10mi
Dew Point:   Wind: 20mph
Humidity: 62%   Direction: 340°NNW
Pressure: 29.78"   Gusts: 29mph
Location:  39.97°N, 75.45°W
Report Text: KPHL 232054Z 34017G25KT 10SM FEW030 SCT050 OVC070 14/07 A2978 RMK AO2 PK WND 34029/2018 SLP083 T01390067 53000 PNO $
Loading
Personal Weather Stations






























Interactive Weather Map
Tropical Storm Tracking
New forecast layout! Learn more

10-Day Weather Forecast

Advertisements
Track Severe Weather on mobile